sensor_id;sensor_type;location;lat;lon;timestamp;P1;durP1;ratioP1;P2;durP2;ratioP2
10471;SDS011;5283;48.876;8.962;2023-05-07T00:00:55;4.43;;;4.07;;
10471;SDS011;5283;48.876;8.962;2023-05-07T00:03:22;5.10;;;3.97;;
10471;SDS011;5283;48.876;8.962;2023-05-07T00:05:49;4.83;;;4.07;;
10471;SDS011;5283;48.876;8.962;2023-05-07T00:08:16;5.07;;;4.00;;
10471;SDS011;5283;48.876;8.962;2023-05-07T00:10:43;5.20;;;4.20;;
10471;SDS011;5283;48.876;8.962;2023-05-07T00:13:09;5.73;;;4.23;;
10471;SDS011;5283;48.876;8.962;2023-05-07T00:15:36;4.87;;;4.00;;
10471;SDS011;5283;48.876;8.962;2023-05-07T00:18:03;4.03;;;3.73;;
10471;SDS011;5283;48.876;8.962;2023-05-07T00:20:30;4.93;;;3.87;;
10471;SDS011;5283;48.876;8.962;2023-05-07T00:22:56;4.50;;;3.63;;
10471;SDS011;5283;48.876;8.962;2023-05-07T00:25:23;3.90;;;3.60;;
10471;SDS011;5283;48.876;8.962;2023-05-07T00:27:50;4.73;;;3.87;;
10471;SDS011;5283;48.876;8.962;2023-05-07T00:30:16;4.97;;;3.77;;
10471;SDS011;5283;48.876;8.962;2023-05-07T00:32:43;4.00;;;3.60;;
10471;SDS011;5283;48.876;8.962;2023-05-07T00:35:11;5.63;;;3.57;;
10471;SDS011;5283;48.876;8.962;2023-05-07T00:37:38;4.30;;;3.90;;
10471;SDS011;5283;48.876;8.962;2023-05-07T00:40:05;5.70;;;3.93;;
10471;SDS011;5283;48.876;8.962;2023-05-07T00:42:33;4.10;;;3.70;;
10471;SDS011;5283;48.876;8.962;2023-05-07T00:45:00;4.50;;;4.10;;
10471;SDS011;5283;48.876;8.962;2023-05-07T00:47:27;4.30;;;3.90;;
10471;SDS011;5283;48.876;8.962;2023-05-07T00:49:54;4.07;;;3.70;;
10471;SDS011;5283;48.876;8.962;2023-05-07T00:52:21;4.70;;;3.80;;
10471;SDS011;5283;48.876;8.962;2023-05-07T00:54:51;4.87;;;4.40;;
10471;SDS011;5283;48.876;8.962;2023-05-07T00:57:18;5.23;;;4.23;;
10471;SDS011;5283;48.876;8.962;2023-05-07T00:59:47;4.73;;;4.27;;
10471;SDS011;5283;48.876;8.962;2023-05-07T01:02:14;4.47;;;4.07;;
10471;SDS011;5283;48.876;8.962;2023-05-07T01:04:41;4.43;;;4.03;;
10471;SDS011;5283;48.876;8.962;2023-05-07T01:07:07;4.40;;;4.00;;
10471;SDS011;5283;48.876;8.962;2023-05-07T01:09:34;5.00;;;4.40;;
10471;SDS011;5283;48.876;8.962;2023-05-07T01:12:02;4.40;;;4.00;;
10471;SDS011;5283;48.876;8.962;2023-05-07T01:14:30;5.13;;;4.50;;
10471;SDS011;5283;48.876;8.962;2023-05-07T01:16:59;5.77;;;4.40;;
10471;SDS011;5283;48.876;8.962;2023-05-07T01:19:26;7.03;;;4.37;;
10471;SDS011;5283;48.876;8.962;2023-05-07T01:21:54;5.00;;;4.33;;
10471;SDS011;5283;48.876;8.962;2023-05-07T01:24:28;5.77;;;4.73;;
10471;SDS011;5283;48.876;8.962;2023-05-07T01:26:56;5.83;;;4.40;;
10471;SDS011;5283;48.876;8.962;2023-05-07T01:29:22;4.97;;;4.47;;
10471;SDS011;5283;48.876;8.962;2023-05-07T01:31:49;8.33;;;5.00;;
10471;SDS011;5283;48.876;8.962;2023-05-07T01:34:17;5.90;;;4.57;;
10471;SDS011;5283;48.876;8.962;2023-05-07T01:36:47;5.63;;;5.03;;
10471;SDS011;5283;48.876;8.962;2023-05-07T01:39:15;6.60;;;5.43;;
10471;SDS011;5283;48.876;8.962;2023-05-07T01:41:42;5.97;;;5.37;;
10471;SDS011;5283;48.876;8.962;2023-05-07T01:44:09;5.70;;;5.10;;
10471;SDS011;5283;48.876;8.962;2023-05-07T01:46:39;6.17;;;5.40;;
10471;SDS011;5283;48.876;8.962;2023-05-07T01:49:06;5.90;;;5.33;;
10471;SDS011;5283;48.876;8.962;2023-05-07T01:51:33;5.10;;;4.70;;
10471;SDS011;5283;48.876;8.962;2023-05-07T01:54:00;5.90;;;5.40;;
10471;SDS011;5283;48.876;8.962;2023-05-07T01:56:27;6.27;;;5.67;;
10471;SDS011;5283;48.876;8.962;2023-05-07T01:58:54;6.30;;;5.70;;
10471;SDS011;5283;48.876;8.962;2023-05-07T02:01:20;5.53;;;5.03;;
10471;SDS011;5283;48.876;8.962;2023-05-07T02:03:47;5.80;;;5.20;;
10471;SDS011;5283;48.876;8.962;2023-05-07T02:06:14;5.83;;;5.17;;
10471;SDS011;5283;48.876;8.962;2023-05-07T02:08:40;6.53;;;5.80;;
10471;SDS011;5283;48.876;8.962;2023-05-07T02:11:07;6.33;;;5.73;;
10471;SDS011;5283;48.876;8.962;2023-05-07T02:13:34;6.43;;;5.27;;
10471;SDS011;5283;48.876;8.962;2023-05-07T02:16:01;5.93;;;5.10;;
10471;SDS011;5283;48.876;8.962;2023-05-07T02:18:28;6.00;;;5.50;;
10471;SDS011;5283;48.876;8.962;2023-05-07T02:20:55;7.93;;;6.00;;
10471;SDS011;5283;48.876;8.962;2023-05-07T02:23:22;6.73;;;6.03;;
10471;SDS011;5283;48.876;8.962;2023-05-07T02:25:49;6.53;;;5.90;;
10471;SDS011;5283;48.876;8.962;2023-05-07T02:28:15;7.40;;;5.57;;
10471;SDS011;5283;48.876;8.962;2023-05-07T02:30:42;5.97;;;5.40;;
10471;SDS011;5283;48.876;8.962;2023-05-07T02:33:08;6.77;;;5.33;;
10471;SDS011;5283;48.876;8.962;2023-05-07T02:35:35;5.73;;;5.20;;
10471;SDS011;5283;48.876;8.962;2023-05-07T02:38:02;5.80;;;5.20;;
10471;SDS011;5283;48.876;8.962;2023-05-07T02:40:29;5.77;;;5.17;;
10471;SDS011;5283;48.876;8.962;2023-05-07T02:42:55;5.80;;;5.20;;
10471;SDS011;5283;48.876;8.962;2023-05-07T02:45:22;6.77;;;5.07;;
10471;SDS011;5283;48.876;8.962;2023-05-07T02:47:49;7.43;;;4.60;;
10471;SDS011;5283;48.876;8.962;2023-05-07T02:50:15;5.50;;;4.97;;
10471;SDS011;5283;48.876;8.962;2023-05-07T02:52:42;5.73;;;5.23;;
10471;SDS011;5283;48.876;8.962;2023-05-07T02:55:09;5.87;;;5.27;;
10471;SDS011;5283;48.876;8.962;2023-05-07T02:57:36;7.20;;;5.43;;
10471;SDS011;5283;48.876;8.962;2023-05-07T03:00:10;5.97;;;5.20;;
10471;SDS011;5283;48.876;8.962;2023-05-07T03:02:40;8.17;;;5.30;;
10471;SDS011;5283;48.876;8.962;2023-05-07T03:05:07;5.47;;;5.03;;
10471;SDS011;5283;48.876;8.962;2023-05-07T03:07:35;6.13;;;5.53;;
10471;SDS011;5283;48.876;8.962;2023-05-07T03:10:02;6.30;;;5.70;;
10471;SDS011;5283;48.876;8.962;2023-05-07T03:12:30;5.97;;;5.23;;
10471;SDS011;5283;48.876;8.962;2023-05-07T03:14:57;6.60;;;5.87;;
10471;SDS011;5283;48.876;8.962;2023-05-07T03:17:24;6.37;;;5.77;;
10471;SDS011;5283;48.876;8.962;2023-05-07T03:19:50;9.20;;;5.63;;
10471;SDS011;5283;48.876;8.962;2023-05-07T03:22:17;6.33;;;5.67;;
10471;SDS011;5283;48.876;8.962;2023-05-07T03:24:43;5.93;;;5.43;;
10471;SDS011;5283;48.876;8.962;2023-05-07T03:27:10;6.17;;;5.10;;
10471;SDS011;5283;48.876;8.962;2023-05-07T03:29:37;6.17;;;5.57;;
10471;SDS011;5283;48.876;8.962;2023-05-07T03:32:03;7.23;;;5.83;;
10471;SDS011;5283;48.876;8.962;2023-05-07T03:34:31;6.33;;;5.73;;
10471;SDS011;5283;48.876;8.962;2023-05-07T03:36:58;6.87;;;6.17;;
10471;SDS011;5283;48.876;8.962;2023-05-07T03:39:25;6.60;;;6.00;;
10471;SDS011;5283;48.876;8.962;2023-05-07T03:41:51;6.20;;;5.60;;
10471;SDS011;5283;48.876;8.962;2023-05-07T03:44:18;7.03;;;6.27;;
10471;SDS011;5283;48.876;8.962;2023-05-07T03:46:46;9.83;;;5.90;;
10471;SDS011;5283;48.876;8.962;2023-05-07T03:49:12;7.27;;;5.77;;
10471;SDS011;5283;48.876;8.962;2023-05-07T03:51:39;6.50;;;5.73;;
10471;SDS011;5283;48.876;8.962;2023-05-07T03:54:06;7.77;;;6.47;;
10471;SDS011;5283;48.876;8.962;2023-05-07T03:56:33;6.30;;;5.70;;
10471;SDS011;5283;48.876;8.962;2023-05-07T03:59:00;8.87;;;6.13;;
10471;SDS011;5283;48.876;8.962;2023-05-07T04:01:27;7.57;;;6.70;;
10471;SDS011;5283;48.876;8.962;2023-05-07T04:03:54;7.97;;;6.70;;
10471;SDS011;5283;48.876;8.962;2023-05-07T04:06:21;8.60;;;6.60;;
10471;SDS011;5283;48.876;8.962;2023-05-07T04:08:48;7.47;;;6.77;;
10471;SDS011;5283;48.876;8.962;2023-05-07T04:11:14;6.93;;;6.23;;
10471;SDS011;5283;48.876;8.962;2023-05-07T04:13:41;6.90;;;6.20;;
10471;SDS011;5283;48.876;8.962;2023-05-07T04:16:08;7.37;;;6.67;;
10471;SDS011;5283;48.876;8.962;2023-05-07T04:18:34;6.90;;;6.20;;
10471;SDS011;5283;48.876;8.962;2023-05-07T04:21:01;8.77;;;6.77;;
10471;SDS011;5283;48.876;8.962;2023-05-07T04:23:28;7.47;;;6.70;;
10471;SDS011;5283;48.876;8.962;2023-05-07T04:25:55;6.80;;;6.10;;
10471;SDS011;5283;48.876;8.962;2023-05-07T04:28:22;7.93;;;7.13;;
10471;SDS011;5283;48.876;8.962;2023-05-07T04:30:50;9.07;;;7.20;;
10471;SDS011;5283;48.876;8.962;2023-05-07T04:33:17;7.17;;;6.47;;
10471;SDS011;5283;48.876;8.962;2023-05-07T04:35:43;7.80;;;7.00;;
10471;SDS011;5283;48.876;8.962;2023-05-07T04:38:10;6.77;;;6.07;;
10471;SDS011;5283;48.876;8.962;2023-05-07T04:40:37;7.67;;;6.90;;
10471;SDS011;5283;48.876;8.962;2023-05-07T04:43:05;6.93;;;6.23;;
10471;SDS011;5283;48.876;8.962;2023-05-07T04:45:31;6.97;;;6.30;;
10471;SDS011;5283;48.876;8.962;2023-05-07T04:47:58;7.13;;;5.67;;
10471;SDS011;5283;48.876;8.962;2023-05-07T04:50:25;7.10;;;5.47;;
10471;SDS011;5283;48.876;8.962;2023-05-07T04:52:52;5.00;;;4.50;;
10471;SDS011;5283;48.876;8.962;2023-05-07T04:55:19;4.60;;;3.90;;
10471;SDS011;5283;48.876;8.962;2023-05-07T04:57:46;3.40;;;2.87;;
10471;SDS011;5283;48.876;8.962;2023-05-07T05:00:13;3.03;;;2.83;;
10471;SDS011;5283;48.876;8.962;2023-05-07T05:02:40;3.00;;;2.70;;
10471;SDS011;5283;48.876;8.962;2023-05-07T05:05:07;3.60;;;3.00;;
10471;SDS011;5283;48.876;8.962;2023-05-07T05:07:34;3.47;;;2.90;;
10471;SDS011;5283;48.876;8.962;2023-05-07T05:10:01;4.47;;;3.30;;
10471;SDS011;5283;48.876;8.962;2023-05-07T05:12:29;3.80;;;3.00;;
10471;SDS011;5283;48.876;8.962;2023-05-07T05:14:56;3.17;;;2.97;;
10471;SDS011;5283;48.876;8.962;2023-05-07T05:17:23;3.63;;;2.87;;
10471;SDS011;5283;48.876;8.962;2023-05-07T05:19:50;3.10;;;2.77;;
10471;SDS011;5283;48.876;8.962;2023-05-07T05:22:16;3.23;;;3.03;;
10471;SDS011;5283;48.876;8.962;2023-05-07T05:24:43;4.80;;;2.90;;
10471;SDS011;5283;48.876;8.962;2023-05-07T05:27:10;3.00;;;2.80;;
10471;SDS011;5283;48.876;8.962;2023-05-07T05:29:36;2.80;;;2.60;;
10471;SDS011;5283;48.876;8.962;2023-05-07T05:32:03;4.07;;;2.20;;
10471;SDS011;5283;48.876;8.962;2023-05-07T05:34:30;3.03;;;2.67;;
10471;SDS011;5283;48.876;8.962;2023-05-07T05:36:57;2.93;;;2.20;;
10471;SDS011;5283;48.876;8.962;2023-05-07T05:39:25;3.60;;;2.30;;
10471;SDS011;5283;48.876;8.962;2023-05-07T05:41:51;3.17;;;2.80;;
10471;SDS011;5283;48.876;8.962;2023-05-07T05:44:18;2.67;;;2.47;;
10471;SDS011;5283;48.876;8.962;2023-05-07T05:46:45;2.73;;;2.47;;
10471;SDS011;5283;48.876;8.962;2023-05-07T05:49:12;2.60;;;2.40;;
10471;SDS011;5283;48.876;8.962;2023-05-07T05:51:39;2.90;;;2.50;;
10471;SDS011;5283;48.876;8.962;2023-05-07T05:54:05;3.50;;;2.70;;
10471;SDS011;5283;48.876;8.962;2023-05-07T05:56:32;2.60;;;2.40;;
10471;SDS011;5283;48.876;8.962;2023-05-07T05:58:59;3.00;;;2.70;;
10471;SDS011;5283;48.876;8.962;2023-05-07T06:01:26;2.93;;;2.70;;
10471;SDS011;5283;48.876;8.962;2023-05-07T06:03:52;4.20;;;2.90;;
10471;SDS011;5283;48.876;8.962;2023-05-07T06:06:19;4.03;;;2.60;;
10471;SDS011;5283;48.876;8.962;2023-05-07T06:08:46;2.60;;;2.50;;
10471;SDS011;5283;48.876;8.962;2023-05-07T06:11:13;2.93;;;2.70;;
10471;SDS011;5283;48.876;8.962;2023-05-07T06:13:39;3.93;;;2.67;;
10471;SDS011;5283;48.876;8.962;2023-05-07T06:16:06;2.57;;;2.47;;
10471;SDS011;5283;48.876;8.962;2023-05-07T06:18:33;3.20;;;2.60;;
10471;SDS011;5283;48.876;8.962;2023-05-07T06:21:02;3.10;;;2.80;;
10471;SDS011;5283;48.876;8.962;2023-05-07T06:23:28;3.77;;;2.40;;
10471;SDS011;5283;48.876;8.962;2023-05-07T06:25:55;3.37;;;2.87;;
10471;SDS011;5283;48.876;8.962;2023-05-07T06:28:22;2.87;;;2.67;;
10471;SDS011;5283;48.876;8.962;2023-05-07T06:30:48;3.70;;;2.67;;
10471;SDS011;5283;48.876;8.962;2023-05-07T06:33:16;3.80;;;2.70;;
10471;SDS011;5283;48.876;8.962;2023-05-07T06:35:42;3.23;;;2.93;;
10471;SDS011;5283;48.876;8.962;2023-05-07T06:38:09;4.27;;;2.97;;
10471;SDS011;5283;48.876;8.962;2023-05-07T06:40:36;3.17;;;2.93;;
10471;SDS011;5283;48.876;8.962;2023-05-07T06:43:03;3.10;;;2.90;;
10471;SDS011;5283;48.876;8.962;2023-05-07T06:45:30;3.03;;;2.83;;
10471;SDS011;5283;48.876;8.962;2023-05-07T06:47:56;3.87;;;2.87;;
10471;SDS011;5283;48.876;8.962;2023-05-07T06:50:23;3.30;;;3.00;;
10471;SDS011;5283;48.876;8.962;2023-05-07T06:52:50;3.07;;;2.80;;
10471;SDS011;5283;48.876;8.962;2023-05-07T06:55:17;3.00;;;2.70;;
10471;SDS011;5283;48.876;8.962;2023-05-07T06:57:45;2.90;;;2.70;;
10471;SDS011;5283;48.876;8.962;2023-05-07T07:00:12;3.90;;;2.83;;
10471;SDS011;5283;48.876;8.962;2023-05-07T07:02:39;4.47;;;2.70;;
10471;SDS011;5283;48.876;8.962;2023-05-07T07:05:06;4.83;;;2.67;;
10471;SDS011;5283;48.876;8.962;2023-05-07T07:07:33;2.83;;;2.60;;
10471;SDS011;5283;48.876;8.962;2023-05-07T07:10:00;2.50;;;2.30;;
10471;SDS011;5283;48.876;8.962;2023-05-07T07:12:26;2.70;;;2.50;;
10471;SDS011;5283;48.876;8.962;2023-05-07T07:14:55;3.03;;;2.73;;
10471;SDS011;5283;48.876;8.962;2023-05-07T07:17:21;4.37;;;2.43;;
10471;SDS011;5283;48.876;8.962;2023-05-07T07:19:48;3.47;;;2.50;;
10471;SDS011;5283;48.876;8.962;2023-05-07T07:22:15;3.83;;;2.30;;
10471;SDS011;5283;48.876;8.962;2023-05-07T07:24:41;2.57;;;2.37;;
10471;SDS011;5283;48.876;8.962;2023-05-07T07:27:08;3.60;;;2.60;;
10471;SDS011;5283;48.876;8.962;2023-05-07T07:29:35;3.60;;;2.40;;
10471;SDS011;5283;48.876;8.962;2023-05-07T07:32:01;3.00;;;2.80;;
10471;SDS011;5283;48.876;8.962;2023-05-07T07:34:28;3.13;;;2.70;;
10471;SDS011;5283;48.876;8.962;2023-05-07T07:36:55;2.85;;;2.65;;
10471;SDS011;5283;48.876;8.962;2023-05-07T07:39:22;2.90;;;2.70;;
10471;SDS011;5283;48.876;8.962;2023-05-07T07:41:48;5.10;;;2.80;;
10471;SDS011;5283;48.876;8.962;2023-05-07T07:44:15;4.17;;;3.10;;
10471;SDS011;5283;48.876;8.962;2023-05-07T07:46:42;3.37;;;3.10;;
10471;SDS011;5283;48.876;8.962;2023-05-07T07:49:08;3.27;;;2.97;;
10471;SDS011;5283;48.876;8.962;2023-05-07T07:51:35;3.27;;;2.60;;
10471;SDS011;5283;48.876;8.962;2023-05-07T07:54:02;4.37;;;2.50;;
10471;SDS011;5283;48.876;8.962;2023-05-07T07:56:29;3.20;;;2.90;;
10471;SDS011;5283;48.876;8.962;2023-05-07T07:58:56;2.90;;;2.70;;
10471;SDS011;5283;48.876;8.962;2023-05-07T08:01:22;3.40;;;3.10;;
10471;SDS011;5283;48.876;8.962;2023-05-07T08:03:49;3.23;;;2.70;;
10471;SDS011;5283;48.876;8.962;2023-05-07T08:06:16;3.97;;;3.00;;
10471;SDS011;5283;48.876;8.962;2023-05-07T08:08:43;3.03;;;2.70;;
10471;SDS011;5283;48.876;8.962;2023-05-07T08:11:09;4.70;;;3.30;;
10471;SDS011;5283;48.876;8.962;2023-05-07T08:13:36;3.43;;;3.13;;
10471;SDS011;5283;48.876;8.962;2023-05-07T08:16:04;3.40;;;3.20;;
10471;SDS011;5283;48.876;8.962;2023-05-07T08:18:31;5.67;;;3.10;;
10471;SDS011;5283;48.876;8.962;2023-05-07T08:20:58;4.33;;;3.30;;
10471;SDS011;5283;48.876;8.962;2023-05-07T08:23:25;5.07;;;3.23;;
10471;SDS011;5283;48.876;8.962;2023-05-07T08:25:51;3.87;;;3.47;;
10471;SDS011;5283;48.876;8.962;2023-05-07T08:28:19;4.20;;;3.47;;
10471;SDS011;5283;48.876;8.962;2023-05-07T08:30:47;3.90;;;3.50;;
10471;SDS011;5283;48.876;8.962;2023-05-07T08:33:14;3.90;;;3.50;;
10471;SDS011;5283;48.876;8.962;2023-05-07T08:35:40;3.47;;;3.00;;
10471;SDS011;5283;48.876;8.962;2023-05-07T08:38:07;4.17;;;3.20;;
10471;SDS011;5283;48.876;8.962;2023-05-07T08:40:36;5.20;;;3.57;;
10471;SDS011;5283;48.876;8.962;2023-05-07T08:43:07;3.67;;;3.00;;
10471;SDS011;5283;48.876;8.962;2023-05-07T08:45:34;3.03;;;2.83;;
10471;SDS011;5283;48.876;8.962;2023-05-07T08:48:02;3.57;;;3.27;;
10471;SDS011;5283;48.876;8.962;2023-05-07T08:50:31;3.20;;;2.90;;
10471;SDS011;5283;48.876;8.962;2023-05-07T08:52:59;3.57;;;2.67;;
10471;SDS011;5283;48.876;8.962;2023-05-07T08:55:26;3.43;;;3.17;;
10471;SDS011;5283;48.876;8.962;2023-05-07T08:57:55;3.53;;;3.07;;
10471;SDS011;5283;48.876;8.962;2023-05-07T09:00:21;4.87;;;3.10;;
10471;SDS011;5283;48.876;8.962;2023-05-07T09:02:48;3.37;;;3.07;;
10471;SDS011;5283;48.876;8.962;2023-05-07T09:05:15;3.63;;;2.83;;
10471;SDS011;5283;48.876;8.962;2023-05-07T09:07:42;3.20;;;2.90;;
10471;SDS011;5283;48.876;8.962;2023-05-07T09:10:09;3.70;;;3.00;;
10471;SDS011;5283;48.876;8.962;2023-05-07T09:12:35;3.23;;;3.03;;
10471;SDS011;5283;48.876;8.962;2023-05-07T09:15:02;5.50;;;3.20;;
10471;SDS011;5283;48.876;8.962;2023-05-07T09:17:29;2.80;;;2.60;;
10471;SDS011;5283;48.876;8.962;2023-05-07T09:19:56;5.33;;;2.90;;
10471;SDS011;5283;48.876;8.962;2023-05-07T09:22:23;3.20;;;3.00;;
10471;SDS011;5283;48.876;8.962;2023-05-07T09:24:50;3.80;;;3.20;;
10471;SDS011;5283;48.876;8.962;2023-05-07T09:27:17;3.47;;;2.83;;
10471;SDS011;5283;48.876;8.962;2023-05-07T09:29:44;4.13;;;3.07;;
10471;SDS011;5283;48.876;8.962;2023-05-07T09:32:11;4.53;;;3.10;;
10471;SDS011;5283;48.876;8.962;2023-05-07T09:34:38;3.40;;;3.10;;
10471;SDS011;5283;48.876;8.962;2023-05-07T09:37:05;3.03;;;2.80;;
10471;SDS011;5283;48.876;8.962;2023-05-07T09:39:42;4.53;;;2.87;;
10471;SDS011;5283;48.876;8.962;2023-05-07T09:42:13;3.63;;;2.93;;
10471;SDS011;5283;48.876;8.962;2023-05-07T09:44:43;3.93;;;3.07;;
10471;SDS011;5283;48.876;8.962;2023-05-07T09:47:10;3.30;;;2.97;;
10471;SDS011;5283;48.876;8.962;2023-05-07T09:49:44;2.97;;;2.67;;
10471;SDS011;5283;48.876;8.962;2023-05-07T09:52:14;4.50;;;3.10;;
10471;SDS011;5283;48.876;8.962;2023-05-07T09:54:41;2.90;;;2.60;;
10471;SDS011;5283;48.876;8.962;2023-05-07T09:57:12;3.60;;;3.27;;
10471;SDS011;5283;48.876;8.962;2023-05-07T09:59:41;3.07;;;2.80;;
10471;SDS011;5283;48.876;8.962;2023-05-07T10:02:09;4.37;;;3.00;;
10471;SDS011;5283;48.876;8.962;2023-05-07T10:04:37;4.23;;;3.00;;
10471;SDS011;5283;48.876;8.962;2023-05-07T10:07:04;4.20;;;3.17;;
10471;SDS011;5283;48.876;8.962;2023-05-07T10:09:31;3.83;;;2.80;;
10471;SDS011;5283;48.876;8.962;2023-05-07T10:11:58;4.37;;;2.93;;
10471;SDS011;5283;48.876;8.962;2023-05-07T10:14:25;4.93;;;3.23;;
10471;SDS011;5283;48.876;8.962;2023-05-07T10:16:54;3.80;;;3.23;;
10471;SDS011;5283;48.876;8.962;2023-05-07T10:19:21;3.43;;;3.13;;
10471;SDS011;5283;48.876;8.962;2023-05-07T10:21:54;3.43;;;3.13;;
10471;SDS011;5283;48.876;8.962;2023-05-07T10:24:26;3.20;;;2.83;;
10471;SDS011;5283;48.876;8.962;2023-05-07T10:26:57;5.47;;;3.50;;
10471;SDS011;5283;48.876;8.962;2023-05-07T10:32:05;2.83;;;2.63;;
10471;SDS011;5283;48.876;8.962;2023-05-07T10:34:54;3.40;;;3.10;;
10471;SDS011;5283;48.876;8.962;2023-05-07T10:37:25;4.97;;;3.20;;
10471;SDS011;5283;48.876;8.962;2023-05-07T10:39:52;3.67;;;2.93;;
10471;SDS011;5283;48.876;8.962;2023-05-07T10:42:18;2.97;;;2.67;;
10471;SDS011;5283;48.876;8.962;2023-05-07T10:44:45;3.13;;;2.93;;
10471;SDS011;5283;48.876;8.962;2023-05-07T10:47:12;3.83;;;3.17;;
10471;SDS011;5283;48.876;8.962;2023-05-07T10:52:17;5.33;;;2.80;;
10471;SDS011;5283;48.876;8.962;2023-05-07T10:55:18;3.60;;;2.77;;
10471;SDS011;5283;48.876;8.962;2023-05-07T10:57:43;3.57;;;2.90;;
10471;SDS011;5283;48.876;8.962;2023-05-07T11:05:28;3.30;;;2.50;;
10471;SDS011;5283;48.876;8.962;2023-05-07T11:07:57;2.87;;;2.50;;
10471;SDS011;5283;48.876;8.962;2023-05-07T11:13:13;3.00;;;2.70;;
10471;SDS011;5283;48.876;8.962;2023-05-07T11:15:42;2.83;;;2.50;;
10471;SDS011;5283;48.876;8.962;2023-05-07T11:18:11;4.30;;;2.60;;
10471;SDS011;5283;48.876;8.962;2023-05-07T11:28:30;2.93;;;2.53;;
10471;SDS011;5283;48.876;8.962;2023-05-07T11:30:59;6.23;;;3.30;;
10471;SDS011;5283;48.876;8.962;2023-05-07T11:33:26;3.10;;;2.40;;
10471;SDS011;5283;48.876;8.962;2023-05-07T11:35:53;2.93;;;2.57;;
10471;SDS011;5283;48.876;8.962;2023-05-07T11:38:19;2.63;;;2.40;;
10471;SDS011;5283;48.876;8.962;2023-05-07T11:40:50;2.70;;;2.50;;
10471;SDS011;5283;48.876;8.962;2023-05-07T11:43:17;2.97;;;2.70;;
10471;SDS011;5283;48.876;8.962;2023-05-07T11:45:45;3.43;;;2.63;;
10471;SDS011;5283;48.876;8.962;2023-05-07T11:48:13;4.67;;;2.57;;
10471;SDS011;5283;48.876;8.962;2023-05-07T11:50:54;2.70;;;2.50;;
10471;SDS011;5283;48.876;8.962;2023-05-07T11:53:37;2.53;;;2.30;;
10471;SDS011;5283;48.876;8.962;2023-05-07T11:56:15;2.80;;;2.43;;
10471;SDS011;5283;48.876;8.962;2023-05-07T11:58:44;4.90;;;2.50;;
10471;SDS011;5283;48.876;8.962;2023-05-07T12:01:12;2.53;;;2.37;;
10471;SDS011;5283;48.876;8.962;2023-05-07T12:03:40;2.33;;;2.13;;
10471;SDS011;5283;48.876;8.962;2023-05-07T12:06:17;2.50;;;2.30;;
10471;SDS011;5283;48.876;8.962;2023-05-07T12:08:44;3.90;;;2.30;;
10471;SDS011;5283;48.876;8.962;2023-05-07T12:11:14;3.87;;;2.43;;
10471;SDS011;5283;48.876;8.962;2023-05-07T12:13:47;2.33;;;2.20;;
10471;SDS011;5283;48.876;8.962;2023-05-07T12:16:14;3.87;;;2.53;;
10471;SDS011;5283;48.876;8.962;2023-05-07T12:18:41;3.07;;;2.60;;
10471;SDS011;5283;48.876;8.962;2023-05-07T12:21:09;2.10;;;2.00;;
10471;SDS011;5283;48.876;8.962;2023-05-07T12:23:43;3.13;;;2.23;;
10471;SDS011;5283;48.876;8.962;2023-05-07T12:26:15;2.37;;;1.97;;
10471;SDS011;5283;48.876;8.962;2023-05-07T12:28:47;2.20;;;2.10;;
10471;SDS011;5283;48.876;8.962;2023-05-07T12:31:37;2.43;;;2.23;;
10471;SDS011;5283;48.876;8.962;2023-05-07T12:34:14;2.83;;;2.30;;
10471;SDS011;5283;48.876;8.962;2023-05-07T12:37:03;2.50;;;2.30;;
10471;SDS011;5283;48.876;8.962;2023-05-07T12:39:30;2.30;;;2.10;;
10471;SDS011;5283;48.876;8.962;2023-05-07T12:42:01;2.40;;;2.20;;
10471;SDS011;5283;48.876;8.962;2023-05-07T12:44:37;3.90;;;2.20;;
10471;SDS011;5283;48.876;8.962;2023-05-07T12:47:33;2.37;;;1.83;;
10471;SDS011;5283;48.876;8.962;2023-05-07T12:50:20;2.63;;;2.00;;
10471;SDS011;5283;48.876;8.962;2023-05-07T12:53:25;1.73;;;1.60;;
10471;SDS011;5283;48.876;8.962;2023-05-07T12:56:41;2.83;;;2.10;;
10471;SDS011;5283;48.876;8.962;2023-05-07T12:59:08;1.97;;;1.87;;
10471;SDS011;5283;48.876;8.962;2023-05-07T13:01:35;2.60;;;1.90;;
10471;SDS011;5283;48.876;8.962;2023-05-07T13:04:02;3.73;;;1.83;;
10471;SDS011;5283;48.876;8.962;2023-05-07T13:06:30;3.27;;;2.00;;
10471;SDS011;5283;48.876;8.962;2023-05-07T13:08:57;2.30;;;1.87;;
10471;SDS011;5283;48.876;8.962;2023-05-07T13:11:24;2.73;;;1.70;;
10471;SDS011;5283;48.876;8.962;2023-05-07T13:13:51;2.23;;;1.50;;
10471;SDS011;5283;48.876;8.962;2023-05-07T13:16:17;1.63;;;1.53;;
10471;SDS011;5283;48.876;8.962;2023-05-07T13:18:47;4.40;;;2.60;;
10471;SDS011;5283;48.876;8.962;2023-05-07T13:21:14;2.43;;;1.53;;
10471;SDS011;5283;48.876;8.962;2023-05-07T13:23:40;2.07;;;1.60;;
10471;SDS011;5283;48.876;8.962;2023-05-07T13:26:07;1.60;;;1.50;;
10471;SDS011;5283;48.876;8.962;2023-05-07T13:28:40;1.50;;;1.40;;
10471;SDS011;5283;48.876;8.962;2023-05-07T13:31:06;4.73;;;1.33;;
10471;SDS011;5283;48.876;8.962;2023-05-07T13:33:33;3.80;;;1.40;;
10471;SDS011;5283;48.876;8.962;2023-05-07T13:36:00;1.30;;;1.17;;
10471;SDS011;5283;48.876;8.962;2023-05-07T13:38:26;1.87;;;1.60;;
10471;SDS011;5283;48.876;8.962;2023-05-07T13:40:53;1.30;;;1.20;;
10471;SDS011;5283;48.876;8.962;2023-05-07T13:43:20;2.07;;;1.30;;
10471;SDS011;5283;48.876;8.962;2023-05-07T13:45:48;1.90;;;1.33;;
10471;SDS011;5283;48.876;8.962;2023-05-07T13:48:14;3.33;;;1.47;;
10471;SDS011;5283;48.876;8.962;2023-05-07T13:50:41;1.90;;;1.57;;
10471;SDS011;5283;48.876;8.962;2023-05-07T13:53:08;3.97;;;1.67;;
10471;SDS011;5283;48.876;8.962;2023-05-07T13:55:34;2.43;;;2.03;;
10471;SDS011;5283;48.876;8.962;2023-05-07T13:58:01;4.77;;;2.10;;
10471;SDS011;5283;48.876;8.962;2023-05-07T14:00:31;3.57;;;2.07;;
10471;SDS011;5283;48.876;8.962;2023-05-07T14:02:58;3.03;;;2.30;;
10471;SDS011;5283;48.876;8.962;2023-05-07T14:05:25;4.37;;;2.50;;
10471;SDS011;5283;48.876;8.962;2023-05-07T14:07:54;2.17;;;2.03;;
10471;SDS011;5283;48.876;8.962;2023-05-07T14:10:22;3.90;;;2.10;;
10471;SDS011;5283;48.876;8.962;2023-05-07T14:12:49;3.23;;;2.30;;
10471;SDS011;5283;48.876;8.962;2023-05-07T14:15:16;2.93;;;2.27;;
10471;SDS011;5283;48.876;8.962;2023-05-07T14:17:43;3.30;;;2.53;;
10471;SDS011;5283;48.876;8.962;2023-05-07T14:20:10;2.20;;;2.00;;
10471;SDS011;5283;48.876;8.962;2023-05-07T14:22:38;3.97;;;2.33;;
10471;SDS011;5283;48.876;8.962;2023-05-07T14:25:05;3.90;;;2.00;;
10471;SDS011;5283;48.876;8.962;2023-05-07T14:27:32;2.70;;;1.90;;
10471;SDS011;5283;48.876;8.962;2023-05-07T14:29:59;2.10;;;1.80;;
10471;SDS011;5283;48.876;8.962;2023-05-07T14:32:26;4.90;;;2.03;;
10471;SDS011;5283;48.876;8.962;2023-05-07T14:34:53;2.70;;;2.10;;
10471;SDS011;5283;48.876;8.962;2023-05-07T14:37:19;5.43;;;2.50;;
10471;SDS011;5283;48.876;8.962;2023-05-07T14:39:46;3.33;;;2.40;;
10471;SDS011;5283;48.876;8.962;2023-05-07T14:42:15;5.80;;;2.80;;
10471;SDS011;5283;48.876;8.962;2023-05-07T14:44:42;3.37;;;2.80;;
10471;SDS011;5283;48.876;8.962;2023-05-07T14:47:11;3.47;;;3.17;;
10471;SDS011;5283;48.876;8.962;2023-05-07T14:49:38;4.03;;;3.33;;
10471;SDS011;5283;48.876;8.962;2023-05-07T14:52:04;4.03;;;3.73;;
10471;SDS011;5283;48.876;8.962;2023-05-07T14:54:33;6.33;;;3.83;;
10471;SDS011;5283;48.876;8.962;2023-05-07T14:57:04;4.23;;;3.83;;
10471;SDS011;5283;48.876;8.962;2023-05-07T14:59:31;5.30;;;4.03;;
10471;SDS011;5283;48.876;8.962;2023-05-07T15:01:58;4.53;;;4.13;;
10471;SDS011;5283;48.876;8.962;2023-05-07T15:04:25;6.43;;;4.13;;
10471;SDS011;5283;48.876;8.962;2023-05-07T15:06:51;5.93;;;3.90;;
10471;SDS011;5283;48.876;8.962;2023-05-07T15:09:19;4.13;;;3.50;;
10471;SDS011;5283;48.876;8.962;2023-05-07T15:11:46;6.00;;;3.83;;
10471;SDS011;5283;48.876;8.962;2023-05-07T15:14:13;5.07;;;3.27;;
10471;SDS011;5283;48.876;8.962;2023-05-07T15:16:39;5.60;;;3.33;;
10471;SDS011;5283;48.876;8.962;2023-05-07T15:19:06;4.30;;;3.20;;
10471;SDS011;5283;48.876;8.962;2023-05-07T15:21:33;6.17;;;3.40;;
10471;SDS011;5283;48.876;8.962;2023-05-07T15:24:01;6.70;;;4.53;;
10471;SDS011;5283;48.876;8.962;2023-05-07T15:26:28;5.53;;;4.50;;